Time;durP1;ratioP1;P1;durP2;ratioP2;P2;SDS_P1;SDS_P2;PMS_P1;PMS_P2;Temp;Humidity;BMP_temperature;BMP_pressure;BME280_temperature;BME280_humidity;BME280_pressure;Samples;Min_cycle;Max_cycle;Signal;HPM_P1;HPM_P2
2023/07/21 00:00:21;;;;;;;4.67;2.53;;;21.20;59.40;;;;;;21085042;28;20230;-59
2023/07/21 00:10:24;;;;;;;2.60;2.40;;;21.10;59.50;;;;;;21096012;28;20208;-58
2023/07/21 00:20:26;;;;;;;4.03;2.63;;;20.90;59.60;;;;;;21095152;28;20716;-65
2023/07/21 00:30:27;;;;;;;3.20;2.47;;;20.80;60.40;;;;;;21083125;28;20301;-66
2023/07/21 00:40:31;;;;;;;3.27;2.50;;;20.80;60.80;;;;;;21082393;28;20662;-67
2023/07/21 00:50:36;;;;;;;3.83;2.80;;;20.80;61.60;;;;;;21082092;28;20210;-63
2023/07/21 01:00:40;;;;;;;3.13;2.53;;;20.70;61.70;;;;;;21092247;28;20295;-59
2023/07/21 01:10:43;;;;;;;3.10;2.60;;;20.60;62.20;;;;;;21080401;28;20217;-60
2023/07/21 01:20:47;;;;;;;3.37;2.77;;;20.60;62.80;;;;;;21090387;28;20352;-66
2023/07/21 01:30:53;;;;;;;2.93;2.53;;;20.50;63.50;;;;;;21061296;28;20206;-67
2023/07/21 01:40:55;;;;;;;4.03;2.50;;;20.40;64.50;;;;;;21078459;28;20237;-67
2023/07/21 01:50:58;;;;;;;3.00;2.73;;;20.30;65.10;;;;;;21078712;28;20294;-67
2023/07/21 02:01:02;;;;;;;3.07;2.70;;;20.30;65.50;;;;;;21077760;28;20229;-65
2023/07/21 02:11:04;;;;;;;6.23;2.63;;;20.20;66.10;;;;;;21100042;28;20224;-59
2023/07/21 02:21:06;;;;;;;4.10;2.90;;;20.10;66.00;;;;;;21077205;28;20248;-58
2023/07/21 02:31:09;;;;;;;4.77;3.00;;;20.00;66.40;;;;;;21089889;28;20213;-62
2023/07/21 02:41:11;;;;;;;3.77;2.90;;;19.90;67.90;;;;;;21091892;28;20593;-65
2023/07/21 02:51:12;;;;;;;4.90;2.87;;;19.80;68.40;;;;;;21091604;28;20631;-61
2023/07/21 03:01:15;;;;;;;4.40;3.00;;;19.60;68.90;;;;;;21137385;28;20331;-61
2023/07/21 03:11:17;;;;;;;5.27;3.43;;;19.60;70.10;;;;;;21173992;28;20262;-62
2023/07/21 03:21:19;;;;;;;8.80;3.77;;;19.50;71.00;;;;;;21106078;28;20323;-62
2023/07/21 03:31:22;;;;;;;5.27;2.90;;;;;;;;;;21088191;28;20242;-63
2023/07/21 03:41:24;;;;;;;4.07;2.90;;;;;;;;;;21086364;28;20282;-59
2023/07/21 03:51:27;;;;;;;7.23;3.17;;;19.30;73.90;;;;;;21137718;28;20235;-65
2023/07/21 04:01:28;;;;;;;4.87;3.90;;;19.30;74.60;;;;;;21169877;28;20254;-59
2023/07/21 04:11:31;;;;;;;4.63;3.10;;;;;;;;;;21169081;28;20204;-59
2023/07/21 04:21:33;;;;;;;3.67;3.20;;;19.30;75.60;;;;;;21101221;28;20236;-59
2023/07/21 04:31:35;;;;;;;4.80;3.03;;;;;;;;;;21167590;28;20738;-59
2023/07/21 04:41:37;;;;;;;5.57;3.20;;;;;;;;;;21166639;28;20285;-61
2023/07/21 04:51:39;;;;;;;8.07;3.90;;;;;;;;;;21160526;28;20300;-59
2023/07/21 05:01:42;;;;;;;4.07;3.20;;;;;;;;;;21089511;28;20327;-62
2023/07/21 05:11:44;;;;;;;4.83;3.47;;;;;;;;;;21078580;28;20320;-61
2023/07/21 05:21:46;;;;;;;5.83;3.23;;;19.50;78.50;;;;;;21142738;28;20327;-67
2023/07/21 05:31:48;;;;;;;6.97;4.00;;;19.40;78.70;;;;;;21149033;28;20299;-62
2023/07/21 05:41:54;;;;;;;9.77;3.80;;;19.60;78.80;;;;;;21162466;28;20248;-66
2023/07/21 05:51:56;;;;;;;13.23;3.67;;;;;;;;;;21162658;28;20238;-60
2023/07/21 06:01:59;;;;;;;6.70;3.60;;;19.80;78.60;;;;;;21141799;28;20261;-60
2023/07/21 06:12:01;;;;;;;6.87;3.50;;;19.90;78.50;;;;;;21094068;28;20726;-62
2023/07/21 06:22:02;;;;;;;3.53;2.97;;;20.10;78.40;;;;;;21093709;28;20712;-60
2023/07/21 06:32:05;;;;;;;6.23;2.90;;;;;;;;;;21100622;28;20213;-60
2023/07/21 06:42:07;;;;;;;6.67;3.13;;;20.10;77.70;;;;;;21175894;28;20719;-60
2023/07/21 06:52:09;;;;;;;3.93;3.07;;;20.30;77.70;;;;;;21175862;28;20231;-63
2023/07/21 07:02:12;;;;;;;3.97;2.90;;;;;;;;;;21167141;28;20229;-66
2023/07/21 07:12:14;;;;;;;5.43;3.73;;;;;;;;;;21096529;28;20230;-64
2023/07/21 07:22:17;;;;;;;4.37;2.90;;;20.70;76.20;;;;;;21111692;28;20230;-61
2023/07/21 07:32:19;;;;;;;8.93;3.07;;;20.90;75.60;;;;;;21150406;28;20210;-61
2023/07/21 07:42:22;;;;;;;4.10;2.60;;;21.50;74.40;;;;;;21132691;28;20295;-59
2023/07/21 07:52:24;;;;;;;6.67;2.90;;;21.50;74.90;;;;;;21122762;28;20289;-67
2023/07/21 08:02:26;;;;;;;5.07;2.50;;;22.10;71.60;;;;;;21143668;28;20282;-60
2023/07/21 08:12:28;;;;;;;4.20;2.60;;;22.30;70.20;;;;;;21106740;28;20230;-68
2023/07/21 08:22:30;;;;;;;3.63;2.50;;;22.30;70.60;;;;;;21165539;28;20240;-68
2023/07/21 08:32:32;;;;;;;2.70;2.50;;;22.40;68.50;;;;;;21149749;28;20210;-67
2023/07/21 08:42:36;;;;;;;6.47;4.53;;;22.30;68.40;;;;;;21135868;28;20249;-68
2023/07/21 08:52:37;;;;;;;2.90;2.60;;;22.20;68.20;;;;;;21081640;28;20587;-67
2023/07/21 09:02:45;;;;;;;4.57;3.90;;;22.20;67.80;;;;;;21081221;28;20776;-67
2023/07/21 09:12:47;;;;;;;3.23;2.70;;;22.10;67.20;;;;;;21080124;28;20273;-68
2023/07/21 09:22:49;;;;;;;4.00;2.93;;;22.20;66.60;;;;;;21131973;28;20712;-68
2023/07/21 09:32:56;;;;;;;5.93;3.33;;;22.20;66.40;;;;;;21162913;28;20209;-68
2023/07/21 09:42:58;;;;;;;14.50;10.40;;;22.40;65.80;;;;;;21162699;28;20586;-68
2023/07/21 09:53:03;;;;;;;3.37;2.70;;;22.80;65.10;;;;;;21120631;28;20301;-69
2023/07/21 10:03:05;;;;;;;4.17;2.67;;;23.10;64.80;;;;;;21078100;28;20279;-68
2023/07/21 10:13:11;;;;;;;5.90;2.40;;;23.30;64.40;;;;;;21077830;28;20309;-69
2023/07/21 10:23:22;;;;;;;5.03;2.40;;;23.60;63.50;;;;;;21102810;28;20269;-69
2023/07/21 10:33:29;;;;;;;4.20;2.53;;;23.70;62.60;;;;;;21161186;28;20540;-67
2023/07/21 10:43:32;;;;;;;3.40;2.47;;;23.70;62.00;;;;;;21160495;28;20651;-67
2023/07/21 10:53:34;;;;;;;2.77;2.40;;;24.10;60.40;;;;;;21175006;28;20206;-68
2023/07/21 11:03:40;;;;;;;3.43;2.60;;;24.20;59.20;;;;;;21102032;28;20324;-68
2023/07/21 11:13:42;;;;;;;3.23;2.00;;;24.40;58.20;;;;;;21087004;28;20230;-68
2023/07/21 11:23:44;;;;;;;2.90;2.50;;;24.50;56.60;;;;;;21088367;28;20321;-63
2023/07/21 11:33:48;;;;;;;3.80;2.43;;;24.50;55.80;;;;;;21143676;28;20309;-63
2023/07/21 11:43:50;;;;;;;6.43;3.00;;;24.30;55.90;;;;;;21170880;28;20320;-68
2023/07/21 11:53:52;;;;;;;3.77;3.00;;;24.50;55.80;;;;;;21170263;28;20233;-63
2023/07/21 12:03:53;;;;;;;7.20;2.70;;;24.60;56.20;;;;;;21122263;28;20230;-68
2023/07/21 12:13:56;;;;;;;4.60;2.40;;;24.70;56.50;;;;;;21084026;28;20255;-67
2023/07/21 12:23:57;;;;;;;7.87;2.90;;;25.10;54.60;;;;;;21110559;28;20236;-68
2023/07/21 12:33:59;;;;;;;3.57;2.80;;;24.60;54.30;;;;;;21136949;28;20725;-67
2023/07/21 12:44:01;;;;;;;3.97;2.60;;;24.20;54.80;;;;;;21162000;28;20242;-64
2023/07/21 12:54:03;;;;;;;6.53;4.23;;;24.10;55.10;;;;;;21122917;28;20233;-70
2023/07/21 13:04:05;;;;;;;7.93;3.50;;;23.90;55.70;;;;;;21080541;28;20753;-70
2023/07/21 13:14:13;;;;;;;8.50;3.47;;;23.60;55.70;;;;;;21089110;28;20230;-67
2023/07/21 13:24:15;;;;;;;6.47;3.17;;;23.50;56.00;;;;;;21088120;28;21247;-67
2023/07/21 13:34:18;;;;;;;7.23;3.20;;;23.40;56.50;;;;;;21163384;28;20703;-63
2023/07/21 13:44:19;;;;;;;4.10;3.43;;;23.30;57.10;;;;;;21148621;28;20233;-61
2023/07/21 13:54:22;;;;;;;11.17;3.13;;;23.20;57.50;;;;;;21162368;28;20280;-64
2023/07/21 14:04:23;;;;;;;3.20;2.50;;;23.30;57.20;;;;;;21162204;28;20269;-63
2023/07/21 14:14:25;;;;;;;10.73;2.30;;;23.40;57.00;;;;;;21142595;28;20236;-67
2023/07/21 14:24:27;;;;;;;5.70;2.57;;;23.20;56.70;;;;;;21096941;28;20316;-67
2023/07/21 14:34:29;;;;;;;8.43;3.23;;;23.00;58.60;;;;;;21175938;28;20241;-66
2023/07/21 14:44:34;;;;;;;6.50;3.97;;;21.70;67.60;;;;;;21167137;28;20321;-66
2023/07/21 14:54:36;;;;;;;6.10;4.30;;;20.80;78.30;;;;;;21171522;28;20662;-64
2023/07/21 15:04:39;;;;;;;6.60;3.70;;;20.80;79.00;;;;;;21175093;28;20233;-62
2023/07/21 15:14:41;;;;;;;9.63;3.83;;;20.40;83.90;;;;;;21147643;28;20311;-66
2023/07/21 15:24:43;;;;;;;5.10;3.90;;;20.40;84.00;;;;;;21098364;28;20713;-68
2023/07/21 15:34:48;;;;;;;4.40;3.43;;;20.70;86.70;;;;;;21113696;28;20202;-70
2023/07/21 15:44:50;;;;;;;5.33;3.50;;;20.80;87.60;;;;;;21102166;28;20312;-64
2023/07/21 15:54:52;;;;;;;5.87;3.40;;;21.80;87.70;;;;;;21170957;28;20289;-62
2023/07/21 16:04:54;;;;;;;6.30;3.00;;;22.10;86.70;;;;;;21170242;28;21061;-67
2023/07/21 16:14:55;;;;;;;6.17;3.00;;;22.30;85.10;;;;;;21169276;28;20310;-63
2023/07/21 16:24:57;;;;;;;5.20;3.10;;;22.60;80.60;;;;;;21102914;28;20700;-65
2023/07/21 16:34:59;;;;;;;4.63;3.07;;;23.20;80.60;;;;;;21083697;28;20203;-69
2023/07/21 16:45:08;;;;;;;5.63;3.20;;;23.10;80.80;;;;;;21082132;28;20250;-66
2023/07/21 16:55:10;;;;;;;5.07;2.83;;;22.20;79.90;;;;;;21081399;28;20207;-67
2023/07/21 17:05:12;;;;;;;5.20;3.27;;;22.10;80.90;;;;;;21131457;28;20238;-69
2023/07/21 17:15:32;;;;;;;6.23;3.10;;;21.50;82.70;;;;;;21164196;28;20230;-71
2023/07/21 17:25:34;;;;;;;4.77;2.93;;;24.90;75.20;;;;;;21092988;28;20360;-64
2023/07/21 17:35:36;;;;;;;4.47;2.93;;;25.30;74.60;;;;;;21079750;28;20245;-63
2023/07/21 17:45:43;;;;;;;6.97;2.92;;;25.80;73.90;;;;;;21060891;28;20329;-69
2023/07/21 17:55:45;;;;;;;3.75;2.47;;;;;;;;;;21081744;28;20721;-72
2023/07/21 18:05:47;;;;;;;6.47;3.00;;;24.20;71.70;;;;;;21095757;28;20230;-71
2023/07/21 18:15:49;;;;;;;3.60;2.80;;;22.80;73.60;;;;;;21094413;28;20270;-66
2023/07/21 18:25:51;;;;;;;3.30;2.90;;;22.00;75.70;;;;;;21148672;28;20631;-78
2023/07/21 18:35:52;;;;;;;4.83;2.40;;;21.90;76.70;;;;;;21177394;28;20649;-69
2023/07/21 18:45:56;;;;;;;3.30;2.33;;;21.20;77.80;;;;;;21177014;28;20313;-63
2023/07/21 18:55:59;;;;;;;2.53;2.10;;;21.00;77.30;;;;;;21155161;28;20210;-61
2023/07/21 19:06:05;;;;;;;3.90;2.17;;;20.50;76.50;;;;;;21168361;28;20252;-62
2023/07/21 19:16:07;;;;;;;5.53;2.90;;;20.50;77.00;;;;;;21171344;28;20312;-64
2023/07/21 19:26:09;;;;;;;2.97;2.27;;;20.40;75.80;;;;;;21173541;28;20233;-63
2023/07/21 19:36:14;;;;;;;5.13;2.80;;;20.20;76.70;;;;;;21147586;28;20201;-64
2023/07/21 19:56:02;;;;;;;4.00;2.40;;;19.80;78.50;;;;;;21067646;28;20554;-62
2023/07/21 20:06:07;;;;;;;6.17;2.70;;;19.70;80.10;;;;;;21065615;28;20294;-62
2023/07/21 20:16:10;;;;;;;6.20;3.37;;;;;;;;;;21066268;28;20224;-63
2023/07/21 20:26:12;;;;;;;3.53;2.57;;;19.70;84.30;;;;;;21064789;28;20210;-61
2023/07/21 20:36:13;;;;;;;4.80;3.07;;;19.70;86.10;;;;;;21064675;28;20675;-62
2023/07/21 20:46:15;;;;;;;3.63;2.60;;;19.50;87.20;;;;;;21062969;28;20225;-61
2023/07/21 20:56:17;;;;;;;3.97;2.63;;;19.50;88.40;;;;;;21063216;28;20223;-61
2023/07/21 21:06:19;;;;;;;3.43;3.10;;;19.50;90.00;;;;;;20986594;28;20310;-61
2023/07/21 21:16:21;;;;;;;4.20;3.23;;;19.50;90.10;;;;;;20923547;28;20260;-61
2023/07/21 21:26:23;;;;;;;4.33;2.87;;;19.50;90.70;;;;;;20922406;28;20688;-61
2023/07/21 21:36:26;;;;;;;4.10;2.97;;;19.50;90.90;;;;;;20920404;28;20218;-61
2023/07/21 21:54:13;;;;;;;5.17;2.60;;;19.50;91.40;;;;;;20984435;28;20578;-62
2023/07/21 22:09:24;;;;;;;4.37;3.00;;;19.50;91.60;;;;;;20984455;28;20571;-62
2023/07/21 22:19:25;;;;;;;3.10;2.80;;;19.50;91.90;;;;;;20983792;28;20207;-62
2023/07/21 22:29:28;;;;;;;4.63;2.67;;;19.40;91.90;;;;;;20981545;28;20217;-63
2023/07/21 22:39:30;;;;;;;5.13;2.80;;;19.40;91.80;;;;;;20966005;28;20234;-63
2023/07/21 22:49:32;;;;;;;4.13;3.10;;;;;;;;;;20934682;28;20314;-62
2023/07/21 22:59:34;;;;;;;4.53;3.40;;;19.20;92.60;;;;;;20897611;28;20216;-62
2023/07/21 23:09:36;;;;;;;4.97;3.77;;;19.20;93.00;;;;;;20897313;28;20242;-62
2023/07/21 23:19:38;;;;;;;2.97;2.67;;;;;;;;;;20848386;28;20615;-62
2023/07/21 23:29:41;;;;;;;4.73;2.70;;;19.10;92.50;;;;;;20840822;28;20239;-63
2023/07/21 23:39:42;;;;;;;3.70;2.70;;;19.00;92.10;;;;;;20839743;28;20580;-63
2023/07/21 23:49:44;;;;;;;6.90;2.93;;;18.90;92.00;;;;;;20839450;28;20697;-62
2023/07/21 23:59:46;;;;;;;2.80;2.50;;;;;;;;;;20838156;28;20325;-63
